Time;durP1;ratioP1;P1;durP2;ratioP2;P2;SDS_P1;SDS_P2;PMS_P1;PMS_P2;Temp;Humidity;BMP_temperature;BMP_pressure;BME280_temperature;BME280_humidity;BME280_pressure;Samples;Min_cycle;Max_cycle;Signal;HPM_P1;HPM_P2
2024/01/26 00:01:54;;;;;;;5.32;2.58;;;;;;;7.51;76.21;100076.25;5072525;28;20298;-64
2024/01/26 00:04:19;;;;;;;7.25;2.30;;;;;;;7.69;76.21;100083.38;5078200;28;20367;-64
2024/01/26 00:06:45;;;;;;;7.60;2.88;;;;;;;7.75;75.48;100089.91;5074245;28;20036;-63
2024/01/26 00:09:11;;;;;;;6.50;2.83;;;;;;;7.78;74.91;100087.00;5078457;28;20037;-63
2024/01/26 00:11:40;;;;;;;9.02;2.70;;;;;;;7.75;75.06;100092.56;5076490;28;20360;-63
2024/01/26 00:14:07;;;;;;;4.93;2.20;;;;;;;7.75;74.58;100097.81;5077481;28;20074;-63
2024/01/26 00:16:33;;;;;;;10.23;2.33;;;;;;;7.75;74.38;100099.63;5076427;28;20040;-64
2024/01/26 00:18:59;;;;;;;8.65;2.70;;;;;;;7.72;74.75;100113.09;5077029;28;20041;-64
2024/01/26 00:21:25;;;;;;;5.30;2.30;;;;;;;7.76;73.88;100103.94;5067482;28;20040;-64
2024/01/26 00:23:50;;;;;;;5.00;1.85;;;;;;;7.80;73.83;100108.81;5077349;28;20789;-63
2024/01/26 00:26:16;;;;;;;7.65;2.10;;;;;;;7.87;73.49;100114.38;5077042;28;20214;-63
2024/01/26 00:28:41;;;;;;;4.00;1.90;;;;;;;7.82;73.32;100114.78;5076596;28;20044;-64
2024/01/26 00:31:07;;;;;;;7.90;2.53;;;;;;;7.82;73.40;100124.47;5076586;28;20098;-64
2024/01/26 00:33:36;;;;;;;4.53;2.30;;;;;;;7.84;73.51;100122.53;5076368;28;20055;-63
2024/01/26 00:36:01;;;;;;;4.15;2.05;;;;;;;7.85;72.88;100114.50;5075323;28;20048;-63
2024/01/26 00:38:27;;;;;;;8.60;2.22;;;;;;;7.83;73.00;100115.59;5072254;28;20036;-63
2024/01/26 00:40:52;;;;;;;9.52;3.75;;;;;;;7.76;72.72;100111.84;5077857;28;20051;-63
2024/01/26 00:43:18;;;;;;;3.50;2.00;;;;;;;7.74;72.52;100111.13;5076131;28;20046;-63
2024/01/26 00:45:44;;;;;;;7.28;2.15;;;;;;;7.78;72.35;100105.47;5077270;28;20036;-64
2024/01/26 00:48:09;;;;;;;6.53;2.15;;;;;;;7.76;72.64;100103.94;5068399;28;20250;-63
2024/01/26 00:50:35;;;;;;;7.65;2.25;;;;;;;7.76;72.59;100115.31;5077442;28;20496;-63
2024/01/26 00:53:01;;;;;;;7.38;2.10;;;;;;;7.81;72.41;100121.00;5075888;28;20036;-63
2024/01/26 00:55:29;;;;;;;4.85;2.00;;;;;;;7.76;72.19;100125.03;5081098;28;20067;-63
2024/01/26 00:57:56;;;;;;;3.63;1.83;;;;;;;7.77;72.39;100116.97;5080472;28;20358;-63
2024/01/26 01:00:23;;;;;;;7.60;2.25;;;;;;;7.76;72.27;100128.50;5080387;28;20285;-64
2024/01/26 01:02:49;;;;;;;6.72;1.83;;;;;;;7.75;72.07;100111.00;5080517;28;20050;-63
2024/01/26 01:05:16;;;;;;;5.07;2.08;;;;;;;7.74;72.48;100111.97;5080466;28;20055;-63
2024/01/26 01:07:41;;;;;;;5.25;2.08;;;;;;;7.67;72.49;100108.22;5078867;28;20222;-63
2024/01/26 01:10:07;;;;;;;4.60;1.90;;;;;;;7.66;72.81;100109.19;5078610;28;20295;-63
2024/01/26 01:12:33;;;;;;;4.78;2.05;;;;;;;7.64;72.56;100113.75;5078736;28;20040;-63
2024/01/26 01:14:58;;;;;;;4.75;1.80;;;;;;;7.61;72.82;100119.28;5074472;28;20046;-64
2024/01/26 01:17:25;;;;;;;4.00;2.33;;;;;;;7.66;72.95;100109.19;5081140;28;20039;-64
2024/01/26 01:19:50;;;;;;;3.15;1.92;;;;;;;7.64;72.56;100108.47;5076264;28;20096;-63
2024/01/26 01:22:16;;;;;;;5.55;2.08;;;;;;;7.63;73.20;100118.19;5080561;28;20107;-62
2024/01/26 01:24:41;;;;;;;4.07;1.73;;;;;;;7.58;73.07;100109.00;5079731;28;20024;-63
2024/01/26 01:27:06;;;;;;;7.22;2.33;;;;;;;7.59;72.95;100121.22;5080938;28;20032;-63
2024/01/26 01:29:32;;;;;;;7.07;2.00;;;;;;;7.62;72.57;100123.59;5079788;28;20316;-64
2024/01/26 01:31:57;;;;;;;6.20;3.13;;;;;;;7.64;72.50;100114.59;5079922;28;20059;-64
2024/01/26 01:34:23;;;;;;;5.15;2.20;;;;;;;7.76;72.15;100117.13;5079355;28;20318;-63
2024/01/26 01:36:49;;;;;;;4.80;2.10;;;;;;;7.63;72.68;100112.91;5080262;28;20059;-63
2024/01/26 01:39:14;;;;;;;6.10;1.95;;;;;;;7.55;72.45;100118.03;5073734;28;20032;-63
2024/01/26 01:41:45;;;;;;;6.68;1.98;;;;;;;7.59;72.70;100113.31;5070108;28;20060;-65
2024/01/26 01:44:10;;;;;;;3.75;2.10;;;;;;;7.50;72.72;100108.84;5077257;28;20033;-65
2024/01/26 01:46:36;;;;;;;5.05;2.08;;;;;;;7.53;72.52;100111.22;5079638;28;20048;-63
2024/01/26 01:49:01;;;;;;;4.78;2.08;;;;;;;7.56;72.75;100109.16;5078899;28;20040;-63
2024/01/26 01:51:31;;;;;;;4.25;2.20;;;;;;;7.46;72.16;100107.44;5072570;28;20090;-63
2024/01/26 01:53:58;;;;;;;4.40;1.98;;;;;;;7.51;72.09;100106.09;5080618;28;20032;-64
2024/01/26 01:56:25;;;;;;;5.10;2.55;;;;;;;7.47;71.79;100107.31;5074223;28;20345;-64
2024/01/26 01:58:51;;;;;;;4.57;2.33;;;;;;;7.47;71.67;100117.03;5080382;28;20076;-63
2024/01/26 02:01:17;;;;;;;6.25;2.35;;;;;;;7.51;71.88;100113.16;5078356;28;20058;-63
2024/01/26 02:03:43;;;;;;;6.35;2.95;;;;;;;7.50;71.69;100109.69;5079191;28;20055;-63
2024/01/26 02:06:08;;;;;;;3.88;2.03;;;;;;;7.48;71.88;100108.16;5072778;28;20047;-64
2024/01/26 02:08:34;;;;;;;5.70;2.33;;;;;;;7.51;72.00;100107.88;5079423;28;20090;-64
2024/01/26 02:10:59;;;;;;;5.53;2.13;;;;;;;7.52;71.72;100107.75;5078558;28;20049;-63
2024/01/26 02:13:24;;;;;;;4.50;2.65;;;;;;;7.52;71.77;100114.81;5079315;28;20340;-63
2024/01/26 02:15:50;;;;;;;7.20;2.40;;;;;;;7.50;71.97;100117.59;5071935;28;20049;-63
2024/01/26 02:18:16;;;;;;;7.05;2.15;;;;;;;7.49;72.15;100121.19;5078593;28;20392;-64
2024/01/26 02:20:41;;;;;;;6.82;2.17;;;;;;;7.45;72.41;100127.69;5079680;28;20036;-64
2024/01/26 02:23:07;;;;;;;5.50;2.20;;;;;;;7.51;72.59;100128.97;5078950;28;20226;-63
2024/01/26 02:25:32;;;;;;;6.07;3.25;;;;;;;7.46;71.98;100139.91;5077781;28;20032;-63
2024/01/26 02:27:58;;;;;;;3.97;2.15;;;;;;;7.44;72.17;100136.56;5070228;28;20032;-63
2024/01/26 02:30:23;;;;;;;6.78;2.88;;;;;;;7.48;72.14;100140.59;5078401;28;20048;-63
2024/01/26 02:32:49;;;;;;;5.90;2.40;;;;;;;7.46;72.40;100136.44;5073049;28;20047;-64
2024/01/26 02:35:14;;;;;;;5.00;2.60;;;;;;;7.47;72.18;100144.22;5079649;28;20051;-64
2024/01/26 02:37:40;;;;;;;5.80;2.10;;;;;;;7.51;72.44;100150.88;5077128;28;20060;-62
2024/01/26 02:40:06;;;;;;;8.00;2.90;;;;;;;7.47;72.38;100138.94;5078993;28;20040;-62
2024/01/26 02:42:32;;;;;;;5.80;2.22;;;;;;;7.56;72.51;100145.22;5071260;28;20041;-63
2024/01/26 02:44:57;;;;;;;5.97;2.55;;;;;;;7.55;72.66;100140.91;5079066;28;20345;-64
2024/01/26 02:47:23;;;;;;;6.40;2.85;;;;;;;7.61;72.45;100149.13;5079047;28;20036;-63
2024/01/26 02:49:48;;;;;;;4.97;2.58;;;;;;;7.61;72.48;100138.56;5078128;28;20075;-63
2024/01/26 02:52:14;;;;;;;5.25;2.40;;;;;;;7.61;72.06;100140.38;5072163;28;20029;-63
2024/01/26 02:54:39;;;;;;;5.13;2.80;;;;;;;7.50;72.21;100141.31;5076199;28;20169;-63
2024/01/26 02:57:05;;;;;;;5.38;2.63;;;;;;;7.55;71.63;100135.63;5078171;28;20100;-63
2024/01/26 02:59:30;;;;;;;6.65;2.35;;;;;;;7.50;72.43;100148.38;5077558;28;20281;-64
2024/01/26 03:01:56;;;;;;;5.43;2.30;;;;;;;7.50;72.47;100145.75;5077538;28;20238;-64
2024/01/26 03:04:21;;;;;;;3.88;2.10;;;;;;;7.55;71.90;100136.47;5076368;28;20039;-63
2024/01/26 03:06:47;;;;;;;6.60;2.25;;;;;;;7.51;71.95;100135.06;5078888;28;20097;-63
2024/01/26 03:09:13;;;;;;;4.32;2.03;;;;;;;7.55;71.81;100141.75;5070997;28;20028;-64
2024/01/26 03:11:40;;;;;;;3.88;2.03;;;;;;;7.45;72.28;100132.97;5078613;28;20047;-63
2024/01/26 03:14:06;;;;;;;4.57;2.13;;;;;;;7.47;72.01;100138.94;5076278;28;20040;-63
2024/01/26 03:16:38;;;;;;;6.05;1.98;;;;;;;7.54;72.17;100141.88;5078944;28;20073;-63
2024/01/26 03:19:03;;;;;;;7.03;2.38;;;;;;;7.54;72.19;100139.25;5069483;28;20041;-63
2024/01/26 03:21:29;;;;;;;4.82;2.50;;;;;;;7.63;71.21;100146.34;5077467;28;20037;-63
2024/01/26 03:23:54;;;;;;;4.40;2.00;;;;;;;7.66;71.30;100141.66;5073892;28;20342;-64
2024/01/26 03:26:20;;;;;;;8.23;2.15;;;;;;;7.64;71.29;100140.94;5077337;28;20040;-64
2024/01/26 03:28:46;;;;;;;4.90;2.60;;;;;;;7.64;71.83;100142.75;5077407;28;20032;-63
2024/01/26 03:31:12;;;;;;;4.05;2.20;;;;;;;7.62;71.99;100144.69;5076878;28;20055;-63
2024/01/26 03:33:37;;;;;;;7.45;3.10;;;;;;;7.58;71.72;100140.63;5078291;28;20222;-65
2024/01/26 03:36:03;;;;;;;5.00;2.08;;;;;;;7.59;72.20;100152.84;5077234;28;20086;-64
2024/01/26 03:38:28;;;;;;;5.80;2.17;;;;;;;7.57;71.90;100155.63;5077190;28;20040;-63
2024/01/26 03:40:54;;;;;;;5.95;2.20;;;;;;;7.51;72.24;100150.03;5075721;28;20052;-63
2024/01/26 03:43:19;;;;;;;3.22;1.90;;;;;;;7.54;71.53;100152.41;5078542;28;20047;-63
2024/01/26 03:45:45;;;;;;;8.60;2.03;;;;;;;7.47;72.25;100151.28;5070140;28;20045;-63
2024/01/26 03:48:10;;;;;;;5.03;2.63;;;;;;;7.40;72.77;100163.31;5078202;28;20045;-65
2024/01/26 03:50:36;;;;;;;3.47;1.63;;;;;;;7.39;72.17;100173.00;5073757;28;20059;-64
2024/01/26 03:53:01;;;;;;;10.93;2.40;;;;;;;7.45;72.51;100174.28;5077991;28;20109;-63
2024/01/26 03:55:27;;;;;;;6.35;2.50;;;;;;;7.52;72.38;100183.34;5076920;28;20048;-63
2024/01/26 03:57:52;;;;;;;7.80;3.38;;;;;;;7.52;71.87;100183.34;5077746;28;20040;-63
2024/01/26 04:00:18;;;;;;;6.38;1.92;;;;;;;7.50;71.85;100172.09;5072535;28;20051;-65
2024/01/26 04:02:43;;;;;;;3.78;1.83;;;;;;;7.53;72.08;100180.56;5076659;28;20060;-65
2024/01/26 04:05:09;;;;;;;8.40;2.33;;;;;;;7.53;71.40;100183.19;5077231;28;20326;-63
2024/01/26 04:07:35;;;;;;;4.97;2.10;;;;;;;7.47;72.03;100177.63;5076354;28;20358;-63
2024/01/26 04:10:01;;;;;;;7.35;2.90;;;;;;;7.50;72.04;100177.38;5077321;28;20150;-63
2024/01/26 04:12:27;;;;;;;4.57;2.20;;;;;;;7.56;71.71;100180.31;5077040;28;20036;-63
2024/01/26 04:14:52;;;;;;;5.95;3.30;;;;;;;7.59;71.52;100189.75;5077336;28;20037;-65
2024/01/26 04:17:18;;;;;;;5.53;2.33;;;;;;;7.61;70.94;100182.53;5072883;28;20043;-65
2024/01/26 04:19:44;;;;;;;3.03;1.75;;;;;;;7.64;70.40;100177.00;5077376;28;20028;-63
2024/01/26 04:22:09;;;;;;;5.32;1.83;;;;;;;7.66;70.80;100172.44;5068020;28;20060;-64
2024/01/26 04:24:35;;;;;;;4.78;2.20;;;;;;;7.54;71.06;100171.69;5077220;28;20047;-63
2024/01/26 04:27:01;;;;;;;5.13;2.20;;;;;;;7.57;70.53;100179.34;5079129;28;20041;-65
2024/01/26 04:29:26;;;;;;;6.15;2.70;;;;;;;7.60;71.09;100168.53;5081360;28;20032;-65
2024/01/26 04:31:52;;;;;;;6.57;2.17;;;;;;;7.60;71.40;100173.81;5080299;28;20360;-63
2024/01/26 04:34:17;;;;;;;8.45;2.90;;;;;;;7.55;71.03;100170.72;5079695;28;20366;-63
2024/01/26 04:36:47;;;;;;;5.13;2.20;;;;;;;7.48;71.30;100179.28;5081368;28;20041;-64
2024/01/26 04:39:13;;;;;;;4.88;2.40;;;;;;;7.47;71.68;100175.00;5080650;28;20040;-64
2024/01/26 04:41:39;;;;;;;7.97;2.75;;;;;;;7.50;71.18;100182.63;5079227;28;20357;-64
2024/01/26 04:44:05;;;;;;;4.20;2.78;;;;;;;7.42;71.95;100174.56;5080249;28;20040;-63
2024/01/26 04:46:30;;;;;;;7.65;2.95;;;;;;;7.42;72.59;100179.81;5078568;28;20078;-63
2024/01/26 04:48:56;;;;;;;6.70;2.90;;;;;;;7.39;72.59;100178.28;5074786;28;20334;-63
2024/01/26 04:51:21;;;;;;;6.05;2.97;;;;;;;7.30;71.63;100179.06;5081538;28;20036;-63
2024/01/26 04:53:47;;;;;;;6.75;3.70;;;;;;;7.26;72.02;100178.47;5079452;28;20035;-64
2024/01/26 04:56:12;;;;;;;5.88;2.58;;;;;;;7.27;72.27;100176.66;5081720;28;20032;-65
2024/01/26 04:58:38;;;;;;;5.60;2.47;;;;;;;7.22;72.33;100171.78;5070632;28;20043;-64
2024/01/26 05:01:04;;;;;;;5.70;2.80;;;;;;;7.21;71.73;100177.19;5073293;28;20032;-63
2024/01/26 05:03:30;;;;;;;5.00;2.70;;;;;;;7.22;71.70;100173.59;5078464;28;20036;-64
2024/01/26 05:05:55;;;;;;;7.05;2.63;;;;;;;7.21;72.32;100172.75;5080389;28;20075;-65
2024/01/26 05:08:20;;;;;;;5.07;2.60;;;;;;;7.23;71.28;100177.88;5080108;28;20049;-65
2024/01/26 05:10:46;;;;;;;8.52;3.53;;;;;;;7.19;71.68;100171.22;5080274;28;20043;-63
2024/01/26 05:13:11;;;;;;;7.63;2.83;;;;;;;7.09;71.63;100158.00;5079542;28;20414;-63
2024/01/26 05:15:37;;;;;;;8.63;2.70;;;;;;;7.10;71.65;100164.91;5080739;28;20044;-64
2024/01/26 05:18:03;;;;;;;8.40;3.30;;;;;;;7.10;71.61;100164.91;5079148;28;20243;-63
2024/01/26 05:20:29;;;;;;;4.57;2.78;;;;;;;7.10;71.74;100151.75;5080498;28;20225;-64
2024/01/26 05:22:55;;;;;;;3.53;2.70;;;;;;;7.05;71.38;100152.16;5076831;28;20081;-64
2024/01/26 05:25:20;;;;;;;6.53;2.72;;;;;;;7.01;71.51;100149.91;5080139;28;20039;-64
2024/01/26 05:27:45;;;;;;;6.05;2.78;;;;;;;6.96;72.41;100152.91;5071299;28;20041;-63
2024/01/26 05:30:11;;;;;;;5.55;3.20;;;;;;;7.02;72.15;100162.09;5079383;28;20032;-64
2024/01/26 05:32:37;;;;;;;6.90;2.92;;;;;;;6.99;71.49;100165.81;5079255;28;20068;-65
2024/01/26 05:35:03;;;;;;;7.10;2.10;;;;;;;7.02;71.59;100178.72;5079129;28;20039;-63
2024/01/26 05:37:29;;;;;;;5.88;2.53;;;;;;;7.06;71.33;100174.03;5076584;28;20025;-63
2024/01/26 05:39:54;;;;;;;4.40;2.70;;;;;;;7.05;70.55;100191.66;5078370;28;20035;-64
2024/01/26 05:42:19;;;;;;;2.53;2.10;;;;;;;7.09;70.76;100197.47;5079084;28;21245;-65
2024/01/26 05:44:45;;;;;;;9.95;2.88;;;;;;;7.20;70.70;100199.22;5078667;28;20316;-65
2024/01/26 05:47:11;;;;;;;4.57;1.95;;;;;;;7.21;70.17;100214.06;5079082;28;20334;-64
2024/01/26 05:49:36;;;;;;;4.53;2.22;;;;;;;7.21;70.23;100214.88;5077331;28;20040;-64
2024/01/26 05:52:02;;;;;;;6.93;3.17;;;;;;;7.20;70.63;100217.66;5079610;28;20326;-64
2024/01/26 05:54:28;;;;;;;6.28;2.58;;;;;;;7.32;70.79;100232.44;5077533;28;20039;-63
2024/01/26 05:56:53;;;;;;;6.78;2.35;;;;;;;7.30;70.41;100226.47;5079441;28;20265;-63
2024/01/26 05:59:19;;;;;;;5.38;2.80;;;;;;;7.31;70.94;100238.69;5077273;28;20048;-65
2024/01/26 06:01:44;;;;;;;5.95;3.30;;;;;;;7.26;70.52;100244.31;5078330;28;20049;-65
2024/01/26 06:04:10;;;;;;;7.78;3.05;;;;;;;7.31;70.63;100239.53;5077943;28;20045;-63
2024/01/26 06:06:35;;;;;;;5.82;2.80;;;;;;;7.31;71.14;100236.88;5078165;28;20039;-63
2024/01/26 06:09:00;;;;;;;6.53;2.65;;;;;;;7.32;71.30;100238.56;5078998;28;20506;-63
2024/01/26 06:11:26;;;;;;;8.25;3.25;;;;;;;7.25;71.10;100233.91;5078160;28;20093;-65
2024/01/26 06:13:51;;;;;;;8.60;3.08;;;;;;;7.30;70.86;100243.13;5078452;28;20040;-65
2024/01/26 06:16:17;;;;;;;6.88;3.10;;;;;;;7.34;70.91;100243.69;5076190;28;20033;-63
2024/01/26 06:18:45;;;;;;;7.63;2.70;;;;;;;7.32;71.35;100246.47;5078493;28;20043;-63
2024/01/26 06:21:11;;;;;;;9.23;3.15;;;;;;;7.40;70.99;100242.34;5077422;28;20052;-63
2024/01/26 06:23:39;;;;;;;5.20;2.22;;;;;;;7.43;71.19;100248.19;5078749;28;20361;-64
2024/01/26 06:26:05;;;;;;;6.60;2.70;;;;;;;7.45;71.34;100245.44;5076908;28;20043;-65
2024/01/26 06:28:31;;;;;;;8.90;2.72;;;;;;;7.48;70.90;100239.91;5078881;28;20033;-63
2024/01/26 06:30:56;;;;;;;5.80;2.42;;;;;;;7.58;70.19;100230.25;5076555;28;20040;-64
2024/01/26 06:33:22;;;;;;;5.22;2.40;;;;;;;7.57;70.04;100237.31;5078465;28;20036;-64
2024/01/26 06:35:47;;;;;;;5.32;2.20;;;;;;;7.60;69.71;100238.84;5076946;28;20038;-64
2024/01/26 06:38:13;;;;;;;7.00;2.08;;;;;;;7.61;69.67;100238.72;5077554;28;20042;-64
2024/01/26 06:40:39;;;;;;;4.05;2.10;;;;;;;7.66;69.45;100233.88;5076789;28;20092;-63
2024/01/26 06:43:07;;;;;;;8.82;2.58;;;;;;;7.73;69.26;100228.09;5077798;28;20044;-63
2024/01/26 06:45:33;;;;;;;4.30;2.03;;;;;;;7.81;68.90;100231.75;5076853;28;20032;-65
2024/01/26 06:47:58;;;;;;;5.72;2.47;;;;;;;7.88;68.86;100234.69;5077914;28;20056;-65
2024/01/26 06:50:24;;;;;;;5.75;2.72;;;;;;;7.92;69.07;100234.28;5076829;28;20036;-64
2024/01/26 06:52:49;;;;;;;7.03;2.20;;;;;;;7.98;69.13;100238.19;5077527;28;20032;-63
2024/01/26 06:55:15;;;;;;;8.93;2.45;;;;;;;8.06;68.09;100235.72;5076705;28;20032;-63
2024/01/26 06:57:40;;;;;;;5.88;2.35;;;;;;;8.15;67.33;100240.19;5077362;28;20037;-63
2024/01/26 07:00:07;;;;;;;7.00;2.25;;;;;;;8.04;67.62;100219.19;5078138;28;20256;-63
2024/01/26 07:02:33;;;;;;;10.02;2.20;;;;;;;8.20;66.89;100234.50;5075490;28;20107;-63
2024/01/26 07:04:59;;;;;;;11.07;2.72;;;;;;;8.33;66.68;100237.78;5078235;28;20069;-65
2024/01/26 07:07:24;;;;;;;5.70;2.20;;;;;;;8.32;66.60;100231.66;5077094;28;20039;-64
2024/01/26 07:09:50;;;;;;;4.47;2.20;;;;;;;8.36;66.17;100226.97;5078121;28;20630;-63
2024/01/26 07:12:15;;;;;;;5.82;2.30;;;;;;;8.35;65.74;100227.94;5076507;28;20047;-63
2024/01/26 07:14:41;;;;;;;6.93;2.00;;;;;;;8.55;65.96;100231.44;5077181;28;20036;-65
2024/01/26 07:17:06;;;;;;;6.40;2.00;;;;;;;8.61;65.08;100233.53;5075267;28;20340;-64
2024/01/26 07:19:32;;;;;;;4.63;1.70;;;;;;;8.75;64.39;100234.94;5075118;28;20028;-63
2024/01/26 07:21:57;;;;;;;5.72;2.03;;;;;;;8.87;63.72;100233.81;5076775;28;20071;-63
2024/01/26 07:24:22;;;;;;;9.57;2.53;;;;;;;9.04;63.66;100227.84;5076718;28;20056;-63
2024/01/26 07:26:48;;;;;;;8.05;2.70;;;;;;;9.12;63.07;100221.84;5077728;28;20032;-63
2024/01/26 07:29:13;;;;;;;5.93;2.13;;;;;;;9.24;62.67;100229.47;5076539;28;20040;-63
2024/01/26 07:31:41;;;;;;;7.25;2.42;;;;;;;9.29;62.29;100224.59;5076577;28;20035;-63
2024/01/26 07:34:06;;;;;;;3.63;1.83;;;;;;;9.27;62.25;100236.28;5076187;28;20068;-62
2024/01/26 07:36:36;;;;;;;5.43;2.20;;;;;;;9.35;62.09;100238.22;5076983;28;20091;-62
2024/01/26 07:39:02;;;;;;;4.90;2.28;;;;;;;9.26;62.88;100234.63;5074561;28;20061;-64
2024/01/26 07:41:28;;;;;;;6.60;2.72;;;;;;;9.45;62.13;100233.78;5077487;28;20375;-64
2024/01/26 07:43:53;;;;;;;4.15;1.90;;;;;;;9.54;62.19;100231.09;5076612;28;20394;-63
2024/01/26 07:46:19;;;;;;;4.18;2.53;;;;;;;9.52;62.37;100234.88;5077102;28;20221;-63
2024/01/26 07:48:44;;;;;;;5.15;2.25;;;;;;;9.63;61.86;100225.94;5075328;28;20257;-63
2024/01/26 07:51:09;;;;;;;3.33;1.58;;;;;;;9.63;62.11;100226.78;5077055;28;20432;-63
2024/01/26 07:53:35;;;;;;;5.03;2.00;;;;;;;9.60;61.75;100216.47;5076315;28;20336;-63
2024/01/26 07:56:01;;;;;;;6.38;2.35;;;;;;;9.67;61.83;100212.28;5076507;28;20028;-64
2024/01/26 07:58:26;;;;;;;7.20;2.08;;;;;;;9.79;62.51;100208.47;5076596;28;20039;-64
2024/01/26 08:00:51;;;;;;;5.40;2.33;;;;;;;9.76;62.28;100214.06;5075441;28;20052;-63
2024/01/26 08:03:17;;;;;;;3.65;2.13;;;;;;;9.73;61.80;100222.28;5076136;28;20227;-63
2024/01/26 08:05:42;;;;;;;3.00;1.50;;;;;;;9.85;61.15;100218.47;5076101;28;20276;-63
2024/01/26 08:08:08;;;;;;;4.32;2.67;;;;;;;9.81;61.00;100222.38;5076398;28;20032;-62
2024/01/26 08:10:33;;;;;;;4.10;2.05;;;;;;;9.79;60.85;100227.00;5074391;28;20051;-63
2024/01/26 08:12:59;;;;;;;2.95;2.22;;;;;;;9.91;60.89;100220.53;5075510;28;20044;-63
2024/01/26 08:15:26;;;;;;;4.40;1.60;;;;;;;9.92;59.41;100224.00;5074027;28;20238;-63
2024/01/26 08:17:51;;;;;;;6.60;2.17;;;;;;;10.00;60.58;100224.13;5074852;28;20077;-64
2024/01/26 08:20:17;;;;;;;5.30;2.30;;;;;;;10.13;60.28;100226.41;5073447;28;20201;-65
2024/01/26 08:22:43;;;;;;;8.95;2.17;;;;;;;10.20;59.54;100224.88;5074558;28;20048;-63
2024/01/26 08:25:09;;;;;;;4.90;2.13;;;;;;;10.23;58.97;100221.94;5073826;28;20214;-63
2024/01/26 08:27:35;;;;;;;5.97;3.97;;;;;;;10.30;58.73;100233.59;5074962;28;20060;-63
2024/01/26 08:30:01;;;;;;;5.72;2.08;;;;;;;10.35;58.96;100235.78;5073950;28;20341;-63
2024/01/26 08:32:26;;;;;;;4.43;2.30;;;;;;;10.35;59.38;100233.16;5074089;28;20273;-63
2024/01/26 08:34:52;;;;;;;9.85;3.05;;;;;;;10.33;57.88;100238.59;5074041;28;20032;-64
2024/01/26 08:37:17;;;;;;;6.28;2.08;;;;;;;10.44;59.85;100241.06;5073763;28;20254;-63
2024/01/26 08:39:44;;;;;;;6.80;3.22;;;;;;;10.41;57.56;100243.19;5073267;28;20067;-63
2024/01/26 08:42:10;;;;;;;3.65;1.90;;;;;;;10.48;58.17;100244.25;5073022;28;20353;-63
2024/01/26 08:44:35;;;;;;;5.35;2.10;;;;;;;10.53;58.44;100248.09;5073799;28;20040;-63
2024/01/26 08:47:01;;;;;;;3.03;1.88;;;;;;;10.53;59.67;100255.22;5072626;28;20266;-63
2024/01/26 08:49:26;;;;;;;3.88;1.55;;;;;;;10.49;58.01;100222.09;5076049;28;20042;-63
2024/01/26 08:51:51;;;;;;;2.22;1.63;;;;;;;10.57;56.93;100242.50;5074372;28;20045;-63
2024/01/26 08:54:18;;;;;;;4.30;2.13;;;;;;;10.58;56.86;100236.22;5076196;28;20043;-64
2024/01/26 08:56:44;;;;;;;5.53;1.77;;;;;;;10.57;55.44;100234.56;5075297;28;20039;-63
2024/01/26 08:59:10;;;;;;;3.95;1.63;;;;;;;10.64;55.43;100238.28;5076760;28;20114;-63
2024/01/26 09:01:37;;;;;;;4.93;2.08;;;;;;;10.76;56.18;100235.25;5074452;28;20415;-63
2024/01/26 09:04:05;;;;;;;2.60;2.05;;;;;;;10.78;56.25;100228.00;5076220;28;20035;-63
2024/01/26 09:06:32;;;;;;;4.30;2.03;;;;;;;10.83;54.95;100246.91;5076487;28;20245;-63
2024/01/26 09:08:57;;;;;;;4.72;1.80;;;;;;;10.76;54.03;100237.06;5075912;28;20352;-63
2024/01/26 09:11:23;;;;;;;4.05;1.95;;;;;;;10.83;53.82;100240.78;5075878;28;20039;-63
2024/01/26 09:13:48;;;;;;;5.00;1.80;;;;;;;10.86;54.10;100228.06;5078632;28;20031;-62
2024/01/26 09:16:14;;;;;;;3.33;1.60;;;;;;;10.86;53.65;100235.19;5078431;28;20401;-63
2024/01/26 09:18:39;;;;;;;4.47;1.77;;;;;;;10.81;54.01;100218.91;5078083;28;20337;-63
2024/01/26 09:21:05;;;;;;;4.47;1.60;;;;;;;10.88;54.54;100218.16;5079412;28;20337;-65
2024/01/26 09:23:31;;;;;;;3.08;1.52;;;;;;;10.90;55.74;100212.69;5078071;28;20067;-65
2024/01/26 09:25:58;;;;;;;6.93;2.20;;;;;;;10.91;54.44;100202.94;5079809;28;20050;-63
2024/01/26 09:28:24;;;;;;;3.47;1.70;;;;;;;10.80;54.58;100206.66;5077731;28;20039;-63
2024/01/26 09:30:49;;;;;;;5.43;2.10;;;;;;;10.80;53.62;100204.00;5079431;28;20040;-63
2024/01/26 09:33:15;;;;;;;4.85;1.67;;;;;;;10.90;52.86;100196.81;5077722;28;20357;-63
2024/01/26 09:35:40;;;;;;;3.30;1.73;;;;;;;11.03;53.65;100191.09;5079211;28;20035;-63
2024/01/26 09:38:05;;;;;;;11.52;2.47;;;;;;;11.09;53.30;100191.31;5078202;28;20041;-63
2024/01/26 09:40:31;;;;;;;4.63;1.92;;;;;;;11.05;51.73;100186.50;5079127;28;20058;-64
2024/01/26 09:42:56;;;;;;;8.40;2.13;;;;;;;11.04;52.36;100183.00;5078505;28;20068;-63
2024/01/26 09:45:23;;;;;;;5.97;1.83;;;;;;;11.13;52.65;100192.69;5078645;28;20036;-63
2024/01/26 09:47:52;;;;;;;7.75;2.75;;;;;;;11.06;51.38;100172.25;5078733;28;20036;-63
2024/01/26 09:50:19;;;;;;;5.50;1.60;;;;;;;11.15;52.39;100192.53;5078364;28;20035;-63
2024/01/26 09:52:46;;;;;;;7.03;2.00;;;;;;;11.26;51.85;100194.09;5079106;28;20052;-62
2024/01/26 09:55:12;;;;;;;5.35;2.22;;;;;;;11.31;51.18;100199.75;5078474;28;20033;-63
2024/01/26 09:57:38;;;;;;;3.67;1.65;;;;;;;11.43;52.40;100199.34;5077853;28;20044;-63
2024/01/26 10:00:07;;;;;;;4.40;1.70;;;;;;;11.46;50.31;100193.75;5077040;28;20218;-63
2024/01/26 10:02:33;;;;;;;3.22;1.77;;;;;;;11.45;50.04;100189.44;5077824;28;20083;-64
2024/01/26 10:04:58;;;;;;;5.20;1.70;;;;;;;11.41;51.15;100201.31;5076803;28;20028;-64
2024/01/26 10:07:23;;;;;;;8.30;2.03;;;;;;;11.41;51.79;100200.47;5078016;28;20052;-63
2024/01/26 10:09:49;;;;;;;8.45;2.00;;;;;;;11.15;51.64;100206.59;5075639;28;20035;-63
2024/01/26 10:12:15;;;;;;;3.83;1.90;;;;;;;11.01;51.59;100193.06;5077845;28;20200;-63
2024/01/26 10:14:40;;;;;;;5.00;1.80;;;;;;;10.88;52.39;100193.47;5076577;28;20273;-63
2024/01/26 10:17:06;;;;;;;6.85;1.63;;;;;;;10.73;53.43;100182.59;5077820;28;20040;-63
2024/01/26 10:19:34;;;;;;;4.63;2.15;;;;;;;10.79;54.54;100184.63;5077026;28;20032;-63
2024/01/26 10:21:59;;;;;;;6.53;1.92;;;;;;;10.86;52.87;100200.75;5078125;28;20118;-64
2024/01/26 10:24:25;;;;;;;3.33;1.77;;;;;;;10.69;53.08;100210.38;5076997;28;20054;-64
2024/01/26 10:26:52;;;;;;;4.75;1.73;;;;;;;10.76;52.08;100200.81;5077262;28;20047;-62
2024/01/26 10:29:18;;;;;;;1.85;1.33;;;;;;;10.86;52.89;100200.75;5077599;28;20354;-63
2024/01/26 10:31:45;;;;;;;3.67;1.40;;;;;;;10.98;51.13;100204.81;5077462;28;20031;-63
2024/01/26 10:34:13;;;;;;;5.22;1.63;;;;;;;11.12;53.29;100206.09;5078085;28;20111;-63
2024/01/26 10:36:45;;;;;;;4.80;1.48;;;;;;;11.22;53.47;100196.22;5077593;28;20337;-63
2024/01/26 10:39:20;;;;;;;3.95;2.42;;;;;;;11.40;52.72;100188.22;5075222;28;20246;-63
2024/01/26 10:41:48;;;;;;;3.45;1.65;;;;;;;11.39;52.46;100200.63;5077143;28;20195;-63
2024/01/26 10:44:15;;;;;;;3.85;1.65;;;;;;;11.46;51.43;100200.88;5077965;28;20036;-63
2024/01/26 10:46:41;;;;;;;6.93;1.65;;;;;;;11.54;50.02;100202.75;5078215;28;20232;-63
2024/01/26 10:49:09;;;;;;;3.15;1.40;;;;;;;11.58;49.17;100209.41;5079244;28;20039;-63
2024/01/26 10:51:37;;;;;;;4.32;1.75;;;;;;;11.46;49.97;100206.19;5078521;28;20317;-65
2024/01/26 10:54:08;;;;;;;4.40;1.73;;;;;;;11.47;49.43;100205.19;5077481;28;20037;-63
2024/01/26 10:56:33;;;;;;;2.70;1.52;;;;;;;11.54;50.78;100200.94;5078016;28;20265;-63
2024/01/26 10:59:00;;;;;;;4.18;1.80;;;;;;;11.60;49.71;100200.28;5078450;28;20032;-63
2024/01/26 11:01:26;;;;;;;5.78;2.40;;;;;;;11.72;50.67;100211.47;5077137;28;20050;-63
2024/01/26 11:03:56;;;;;;;3.40;1.80;;;;;;;11.80;52.37;100196.44;5076823;28;20268;-63
2024/01/26 11:06:21;;;;;;;4.22;1.60;;;;;;;11.84;49.81;100196.97;5077140;28;20037;-63
2024/01/26 11:08:47;;;;;;;4.22;1.70;;;;;;;11.88;50.72;100192.16;5077243;28;20051;-63
2024/01/26 11:11:15;;;;;;;2.40;1.50;;;;;;;11.90;50.43;100180.41;5076615;28;20039;-63
2024/01/26 11:13:40;;;;;;;3.38;1.77;;;;;;;11.89;50.38;100178.75;5076629;28;20346;-63
2024/01/26 11:16:07;;;;;;;3.33;1.42;;;;;;;11.87;48.43;100187.84;5076790;28;20090;-63
2024/01/26 11:18:36;;;;;;;4.05;1.63;;;;;;;11.90;50.22;100184.88;5075996;28;20036;-64
2024/01/26 11:21:04;;;;;;;4.22;1.98;;;;;;;11.93;50.11;100179.25;5076582;28;20157;-64
2024/01/26 11:23:41;;;;;;;4.47;1.80;;;;;;;11.93;49.66;100179.25;5076282;28;20068;-63
2024/01/26 11:26:13;;;;;;;4.50;1.85;;;;;;;11.95;48.71;100177.28;5076300;28;20430;-63